Fletcher, North Carolina
Current Conditions -  °F | °C
As of 9:54 PM on Monday 26 Jan 2015 (Local Time) from KAVL Reporting Station
Clear Clear  
Wind Chill: 17°   Ceiling: Unl
Heat Index: 29°   Visibility: 10mi
Dew Point: 22°   Wind: 16mph
Humidity: 75%   Direction: 350°N
Pressure: 29.78"   Gusts: 31mph
Location:  35.43°N, 82.5°W
Report Text: KAVL 270254Z 35014G27KT 10SM CLR M02/M06 A2978 RMK AO2 PK WND 36027/0251 SLP090 T10171056 58002
Loading
Personal Weather Stations






























Interactive Weather Map New forecast layout! Learn more

10-Day Weather Forecast

Advertisements
Track Severe Weather on mobile